Skiathos, Hellas

22:13:EEST den 01. juli 2015 (GMT +0300)
Skopelos Greece | | Change Station
CLOSE
Current Station
Personlig værstasjon
Location: Ελλάδα,
Høyde over havet: 259 ft
Nearby Weather Stations

H.o.h 259 ft 39.13 °N, 23.72 °E | Updated 12 seconds ago

Clear
Klart
70.3 °F
Feels Like 71 °F
N
2.0
Vind Variabel Vind from VNV
Gusts 7.6 mph

I dag
High -- | Low -- °F
--% Chance of Precip.
I går
High -- | Low -- °F
Precip. -- tommer
6:03 AM 8:56 PM
Fullmåne, 100% visible
Lufttrykk 30.12 tommer
Sikt -9999.0 eng. mil
Skyet
Varmeindeks 71 °F
Duggpunkt 64 °F
Fuktighet 81%
Regn 0.00 tommer
Snødybde Not available.
UV 0.0 av 12
Pollen Not available.
Luftkvalitet Not available.
Flu Activity Not available.
METAR LGBL 011850Z 33007KT CAVOK 21/14 Q1020 RMK FEW080 BLU

More Conditions Fewer Conditions

Lufttrykk 30.12 tommer
Sikt -9999.0 eng. mil
Skyet
Varmeindeks 71 °F
Duggpunkt 64 °F
Fuktighet 81%
Regn 0.00 tommer
Snødybde Not available.
UV 0.0 av 12
Pollen Not available.
Luftkvalitet Not available.
Flu Activity Not available.
METAR LGBL 011850Z 33007KT CAVOK 21/14 Q1020 RMK FEW080 BLU

More Conditions Fewer Conditions

10-Day Weather Forecast

×

Almanac

Astronomi

Jul. 01, 2015 Oppgang Nedgang
Virkelig tid
Tussmørke
Nautisk skumring
Astronomisk skumring
Månen
Lengde av synlig lys
Dagens lengde
Tomorrow will be .
, % of the Moon is Illuminated

Dagens maks og min

Country Highs Country Lows

Community

WunderPhotos

Upload Photos

1,834,243 photos uploaded!

WunderBlogs® & News

Nearby

Luftkvalitet

  Luftkvalitet AQ Indeks Forurensing
Not available.

Snødybde

Stasjon Depth Høyde over havet

Earthquake Activity

By Distance Mag. Time & Date
Minimum magnitude displayed is 2.5.

Coastal Water Temperatures

Sted Temperatur

Stations

Nearby Weather Stations

Stasjonens lokasjon Temp. Nedkjølingseffekt Duggpunkt Fuktighet Vind Precip. H.o.h Oppdatert Type